sensor_id;sensor_type;location;lat;lon;timestamp;P1;durP1;ratioP1;P2;durP2;ratioP2
12591;SDS011;6361;52.120;5.108;2023-07-13T00:01:26;18.17;;;2.90;;
12591;SDS011;6361;52.120;5.108;2023-07-13T00:03:52;16.63;;;3.00;;
12591;SDS011;6361;52.120;5.108;2023-07-13T00:06:18;13.63;;;2.90;;
12591;SDS011;6361;52.120;5.108;2023-07-13T00:08:45;10.13;;;2.80;;
12591;SDS011;6361;52.120;5.108;2023-07-13T00:11:10;14.65;;;2.78;;
12591;SDS011;6361;52.120;5.108;2023-07-13T00:13:36;18.27;;;3.03;;
12591;SDS011;6361;52.120;5.108;2023-07-13T00:16:03;13.80;;;2.80;;
12591;SDS011;6361;52.120;5.108;2023-07-13T00:18:28;12.32;;;2.95;;
12591;SDS011;6361;52.120;5.108;2023-07-13T00:20:55;13.00;;;3.08;;
12591;SDS011;6361;52.120;5.108;2023-07-13T00:23:22;22.13;;;3.00;;
12591;SDS011;6361;52.120;5.108;2023-07-13T00:25:48;8.55;;;2.85;;
12591;SDS011;6361;52.120;5.108;2023-07-13T00:28:15;10.20;;;2.85;;
12591;SDS011;6361;52.120;5.108;2023-07-13T00:30:41;13.55;;;2.90;;
12591;SDS011;6361;52.120;5.108;2023-07-13T00:33:06;10.18;;;2.78;;
12591;SDS011;6361;52.120;5.108;2023-07-13T00:35:34;11.05;;;2.70;;
12591;SDS011;6361;52.120;5.108;2023-07-13T00:37:59;8.32;;;2.33;;
12591;SDS011;6361;52.120;5.108;2023-07-13T00:40:25;13.20;;;2.70;;
12591;SDS011;6361;52.120;5.108;2023-07-13T00:42:51;11.80;;;2.85;;
12591;SDS011;6361;52.120;5.108;2023-07-13T00:47:43;10.32;;;2.60;;
12591;SDS011;6361;52.120;5.108;2023-07-13T00:50:10;7.57;;;2.67;;
12591;SDS011;6361;52.120;5.108;2023-07-13T00:52:39;8.27;;;2.42;;
12591;SDS011;6361;52.120;5.108;2023-07-13T00:55:06;11.25;;;2.70;;
12591;SDS011;6361;52.120;5.108;2023-07-13T00:57:31;13.85;;;2.95;;
12591;SDS011;6361;52.120;5.108;2023-07-13T00:59:58;11.50;;;2.70;;
12591;SDS011;6361;52.120;5.108;2023-07-13T01:02:31;9.32;;;2.50;;
12591;SDS011;6361;52.120;5.108;2023-07-13T01:04:57;11.35;;;2.75;;
12591;SDS011;6361;52.120;5.108;2023-07-13T01:07:23;9.90;;;2.67;;
12591;SDS011;6361;52.120;5.108;2023-07-13T01:09:49;13.80;;;2.70;;
12591;SDS011;6361;52.120;5.108;2023-07-13T01:12:14;11.30;;;2.75;;
12591;SDS011;6361;52.120;5.108;2023-07-13T01:14:39;10.95;;;2.85;;
12591;SDS011;6361;52.120;5.108;2023-07-13T01:17:05;15.18;;;2.88;;
12591;SDS011;6361;52.120;5.108;2023-07-13T01:22:06;11.30;;;2.80;;
12591;SDS011;6361;52.120;5.108;2023-07-13T01:24:34;16.45;;;3.17;;
12591;SDS011;6361;52.120;5.108;2023-07-13T01:27:01;11.98;;;2.90;;
12591;SDS011;6361;52.120;5.108;2023-07-13T01:29:27;11.02;;;3.08;;
12591;SDS011;6361;52.120;5.108;2023-07-13T01:31:52;12.23;;;2.95;;
12591;SDS011;6361;52.120;5.108;2023-07-13T01:34:17;17.23;;;2.92;;
12591;SDS011;6361;52.120;5.108;2023-07-13T01:36:43;12.27;;;2.72;;
12591;SDS011;6361;52.120;5.108;2023-07-13T01:39:08;14.38;;;3.08;;
12591;SDS011;6361;52.120;5.108;2023-07-13T01:41:34;12.15;;;2.72;;
12591;SDS011;6361;52.120;5.108;2023-07-13T01:43:59;15.55;;;3.13;;
12591;SDS011;6361;52.120;5.108;2023-07-13T01:46:24;12.50;;;3.28;;
12591;SDS011;6361;52.120;5.108;2023-07-13T01:48:50;12.38;;;3.20;;
12591;SDS011;6361;52.120;5.108;2023-07-13T01:51:18;11.25;;;3.03;;
12591;SDS011;6361;52.120;5.108;2023-07-13T01:53:44;9.10;;;3.25;;
12591;SDS011;6361;52.120;5.108;2023-07-13T01:56:10;9.98;;;3.08;;
12591;SDS011;6361;52.120;5.108;2023-07-13T01:58:35;11.18;;;3.40;;
12591;SDS011;6361;52.120;5.108;2023-07-13T02:01:01;15.43;;;3.17;;
12591;SDS011;6361;52.120;5.108;2023-07-13T02:03:26;11.25;;;3.13;;
12591;SDS011;6361;52.120;5.108;2023-07-13T02:05:51;15.82;;;3.80;;
12591;SDS011;6361;52.120;5.108;2023-07-13T02:08:17;11.30;;;2.97;;
12591;SDS011;6361;52.120;5.108;2023-07-13T02:10:42;14.25;;;2.80;;
12591;SDS011;6361;52.120;5.108;2023-07-13T02:13:08;12.95;;;3.15;;
12591;SDS011;6361;52.120;5.108;2023-07-13T02:15:33;10.20;;;2.38;;
12591;SDS011;6361;52.120;5.108;2023-07-13T02:17:59;11.75;;;3.00;;
12591;SDS011;6361;52.120;5.108;2023-07-13T02:20:28;12.60;;;3.08;;
12591;SDS011;6361;52.120;5.108;2023-07-13T02:22:54;13.43;;;3.22;;
12591;SDS011;6361;52.120;5.108;2023-07-13T02:25:19;16.35;;;3.53;;
12591;SDS011;6361;52.120;5.108;2023-07-13T02:27:44;11.20;;;2.97;;
12591;SDS011;6361;52.120;5.108;2023-07-13T02:30:10;14.70;;;3.13;;
12591;SDS011;6361;52.120;5.108;2023-07-13T02:32:36;17.67;;;3.10;;
12591;SDS011;6361;52.120;5.108;2023-07-13T02:35:02;14.02;;;3.15;;
12591;SDS011;6361;52.120;5.108;2023-07-13T02:37:28;16.00;;;3.70;;
12591;SDS011;6361;52.120;5.108;2023-07-13T02:39:53;16.42;;;3.50;;
12591;SDS011;6361;52.120;5.108;2023-07-13T02:42:19;13.95;;;3.35;;
12591;SDS011;6361;52.120;5.108;2023-07-13T02:44:44;10.10;;;3.42;;
12591;SDS011;6361;52.120;5.108;2023-07-13T02:47:10;17.45;;;3.55;;
12591;SDS011;6361;52.120;5.108;2023-07-13T02:49:35;15.20;;;3.50;;
12591;SDS011;6361;52.120;5.108;2023-07-13T02:52:01;20.35;;;3.58;;
12591;SDS011;6361;52.120;5.108;2023-07-13T02:54:26;15.98;;;3.50;;
12591;SDS011;6361;52.120;5.108;2023-07-13T02:56:52;12.63;;;3.55;;
12591;SDS011;6361;52.120;5.108;2023-07-13T02:59:17;12.15;;;3.53;;
12591;SDS011;6361;52.120;5.108;2023-07-13T03:01:42;18.95;;;3.80;;
12591;SDS011;6361;52.120;5.108;2023-07-13T03:04:08;19.17;;;3.95;;
12591;SDS011;6361;52.120;5.108;2023-07-13T03:06:34;9.65;;;3.50;;
12591;SDS011;6361;52.120;5.108;2023-07-13T03:09:02;13.63;;;3.47;;
12591;SDS011;6361;52.120;5.108;2023-07-13T03:11:28;16.30;;;3.78;;
12591;SDS011;6361;52.120;5.108;2023-07-13T03:13:54;15.75;;;3.45;;
12591;SDS011;6361;52.120;5.108;2023-07-13T03:16:20;12.65;;;3.03;;
12591;SDS011;6361;52.120;5.108;2023-07-13T03:18:46;13.30;;;3.88;;
12591;SDS011;6361;52.120;5.108;2023-07-13T03:21:12;14.82;;;3.70;;
12591;SDS011;6361;52.120;5.108;2023-07-13T03:23:38;14.73;;;3.28;;
12591;SDS011;6361;52.120;5.108;2023-07-13T03:26:05;14.38;;;3.28;;
12591;SDS011;6361;52.120;5.108;2023-07-13T03:28:32;13.13;;;2.83;;
12591;SDS011;6361;52.120;5.108;2023-07-13T03:31:08;14.00;;;3.45;;
12591;SDS011;6361;52.120;5.108;2023-07-13T03:33:36;13.40;;;3.13;;
12591;SDS011;6361;52.120;5.108;2023-07-13T03:36:02;11.60;;;3.10;;
12591;SDS011;6361;52.120;5.108;2023-07-13T03:38:29;15.57;;;3.45;;
12591;SDS011;6361;52.120;5.108;2023-07-13T03:40:54;15.40;;;3.47;;
12591;SDS011;6361;52.120;5.108;2023-07-13T03:43:20;17.20;;;3.70;;
12591;SDS011;6361;52.120;5.108;2023-07-13T03:45:46;15.48;;;3.30;;
12591;SDS011;6361;52.120;5.108;2023-07-13T03:48:12;13.18;;;3.20;;
12591;SDS011;6361;52.120;5.108;2023-07-13T03:50:38;13.80;;;3.60;;
12591;SDS011;6361;52.120;5.108;2023-07-13T03:53:03;11.55;;;3.47;;
12591;SDS011;6361;52.120;5.108;2023-07-13T03:55:31;15.18;;;3.55;;
12591;SDS011;6361;52.120;5.108;2023-07-13T03:58:23;18.20;;;4.38;;
12591;SDS011;6361;52.120;5.108;2023-07-13T04:00:49;13.88;;;3.53;;
12591;SDS011;6361;52.120;5.108;2023-07-13T04:03:15;17.05;;;4.00;;
12591;SDS011;6361;52.120;5.108;2023-07-13T04:05:41;18.05;;;4.10;;
12591;SDS011;6361;52.120;5.108;2023-07-13T04:08:07;16.80;;;4.38;;
12591;SDS011;6361;52.120;5.108;2023-07-13T04:10:32;18.90;;;4.55;;
12591;SDS011;6361;52.120;5.108;2023-07-13T04:12:57;11.98;;;4.13;;
12591;SDS011;6361;52.120;5.108;2023-07-13T04:15:23;15.93;;;4.80;;
12591;SDS011;6361;52.120;5.108;2023-07-13T04:17:48;19.17;;;4.78;;
12591;SDS011;6361;52.120;5.108;2023-07-13T04:20:14;17.30;;;4.68;;
12591;SDS011;6361;52.120;5.108;2023-07-13T04:22:39;20.77;;;4.70;;
12591;SDS011;6361;52.120;5.108;2023-07-13T04:25:05;22.90;;;5.22;;
12591;SDS011;6361;52.120;5.108;2023-07-13T04:27:30;17.63;;;5.00;;
12591;SDS011;6361;52.120;5.108;2023-07-13T04:29:56;24.25;;;5.07;;
12591;SDS011;6361;52.120;5.108;2023-07-13T04:32:21;23.48;;;5.32;;
12591;SDS011;6361;52.120;5.108;2023-07-13T04:34:47;18.88;;;5.20;;
12591;SDS011;6361;52.120;5.108;2023-07-13T04:37:12;20.20;;;5.68;;
12591;SDS011;6361;52.120;5.108;2023-07-13T04:39:37;21.23;;;5.30;;
12591;SDS011;6361;52.120;5.108;2023-07-13T04:42:03;25.55;;;5.70;;
12591;SDS011;6361;52.120;5.108;2023-07-13T04:44:29;21.25;;;5.95;;
12591;SDS011;6361;52.120;5.108;2023-07-13T04:46:54;17.20;;;5.40;;
12591;SDS011;6361;52.120;5.108;2023-07-13T04:49:20;23.73;;;5.82;;
12591;SDS011;6361;52.120;5.108;2023-07-13T04:51:45;21.00;;;5.70;;
12591;SDS011;6361;52.120;5.108;2023-07-13T04:54:11;27.05;;;6.07;;
12591;SDS011;6361;52.120;5.108;2023-07-13T04:56:36;22.95;;;6.30;;
12591;SDS011;6361;52.120;5.108;2023-07-13T04:59:02;20.17;;;6.45;;
12591;SDS011;6361;52.120;5.108;2023-07-13T05:01:27;23.45;;;6.95;;
12591;SDS011;6361;52.120;5.108;2023-07-13T05:03:52;29.73;;;7.32;;
12591;SDS011;6361;52.120;5.108;2023-07-13T05:06:20;27.33;;;7.72;;
12591;SDS011;6361;52.120;5.108;2023-07-13T05:08:46;30.27;;;8.30;;
12591;SDS011;6361;52.120;5.108;2023-07-13T05:11:11;28.70;;;7.47;;
12591;SDS011;6361;52.120;5.108;2023-07-13T05:13:36;25.60;;;8.73;;
12591;SDS011;6361;52.120;5.108;2023-07-13T05:16:06;31.83;;;8.70;;
12591;SDS011;6361;52.120;5.108;2023-07-13T05:18:32;27.38;;;7.72;;
12591;SDS011;6361;52.120;5.108;2023-07-13T05:20:59;29.15;;;7.30;;
12591;SDS011;6361;52.120;5.108;2023-07-13T05:23:29;23.17;;;6.30;;
12591;SDS011;6361;52.120;5.108;2023-07-13T05:25:56;30.02;;;7.55;;
12591;SDS011;6361;52.120;5.108;2023-07-13T05:28:21;25.63;;;6.53;;
12591;SDS011;6361;52.120;5.108;2023-07-13T05:30:47;26.13;;;6.60;;
12591;SDS011;6361;52.120;5.108;2023-07-13T05:33:13;30.73;;;7.00;;
12591;SDS011;6361;52.120;5.108;2023-07-13T05:35:38;25.83;;;6.93;;
12591;SDS011;6361;52.120;5.108;2023-07-13T05:38:04;28.45;;;7.90;;
12591;SDS011;6361;52.120;5.108;2023-07-13T05:40:29;27.73;;;7.20;;
12591;SDS011;6361;52.120;5.108;2023-07-13T05:42:55;19.85;;;6.90;;
12591;SDS011;6361;52.120;5.108;2023-07-13T05:45:20;29.25;;;7.28;;
12591;SDS011;6361;52.120;5.108;2023-07-13T05:47:46;26.17;;;6.97;;
12591;SDS011;6361;52.120;5.108;2023-07-13T05:50:11;26.05;;;8.05;;
12591;SDS011;6361;52.120;5.108;2023-07-13T05:52:37;24.30;;;7.25;;
12591;SDS011;6361;52.120;5.108;2023-07-13T05:55:03;29.15;;;8.13;;
12591;SDS011;6361;52.120;5.108;2023-07-13T05:57:29;26.33;;;7.38;;
12591;SDS011;6361;52.120;5.108;2023-07-13T05:59:55;30.77;;;7.10;;
12591;SDS011;6361;52.120;5.108;2023-07-13T06:02:20;27.33;;;8.07;;
12591;SDS011;6361;52.120;5.108;2023-07-13T06:04:46;22.15;;;7.20;;
12591;SDS011;6361;52.120;5.108;2023-07-13T06:07:11;28.25;;;7.75;;
12591;SDS011;6361;52.120;5.108;2023-07-13T06:09:37;29.38;;;7.95;;
12591;SDS011;6361;52.120;5.108;2023-07-13T06:12:03;26.70;;;7.68;;
12591;SDS011;6361;52.120;5.108;2023-07-13T06:14:29;27.00;;;7.60;;
12591;SDS011;6361;52.120;5.108;2023-07-13T06:16:54;29.98;;;8.50;;
12591;SDS011;6361;52.120;5.108;2023-07-13T06:19:19;21.58;;;7.88;;
12591;SDS011;6361;52.120;5.108;2023-07-13T06:21:45;24.33;;;6.55;;
12591;SDS011;6361;52.120;5.108;2023-07-13T06:24:10;20.70;;;7.55;;
12591;SDS011;6361;52.120;5.108;2023-07-13T06:26:36;29.38;;;7.70;;
12591;SDS011;6361;52.120;5.108;2023-07-13T06:29:01;21.80;;;7.13;;
12591;SDS011;6361;52.120;5.108;2023-07-13T06:31:27;26.27;;;7.85;;
12591;SDS011;6361;52.120;5.108;2023-07-13T06:33:52;23.17;;;7.05;;
12591;SDS011;6361;52.120;5.108;2023-07-13T06:36:18;26.23;;;7.25;;
12591;SDS011;6361;52.120;5.108;2023-07-13T06:38:43;25.10;;;8.38;;
12591;SDS011;6361;52.120;5.108;2023-07-13T06:41:08;26.98;;;8.13;;
12591;SDS011;6361;52.120;5.108;2023-07-13T06:43:34;21.35;;;7.68;;
12591;SDS011;6361;52.120;5.108;2023-07-13T06:45:59;22.40;;;8.65;;
12591;SDS011;6361;52.120;5.108;2023-07-13T06:48:26;24.00;;;9.13;;
12591;SDS011;6361;52.120;5.108;2023-07-13T06:50:51;24.58;;;8.80;;
12591;SDS011;6361;52.120;5.108;2023-07-13T06:53:18;26.83;;;9.00;;
12591;SDS011;6361;52.120;5.108;2023-07-13T06:55:46;22.48;;;8.80;;
12591;SDS011;6361;52.120;5.108;2023-07-13T06:58:13;27.02;;;9.38;;
12591;SDS011;6361;52.120;5.108;2023-07-13T07:00:39;24.50;;;10.43;;
12591;SDS011;6361;52.120;5.108;2023-07-13T07:03:05;15.50;;;6.78;;
12591;SDS011;6361;52.120;5.108;2023-07-13T07:05:30;14.65;;;6.72;;
12591;SDS011;6361;52.120;5.108;2023-07-13T07:07:56;13.35;;;5.25;;
12591;SDS011;6361;52.120;5.108;2023-07-13T07:10:21;10.38;;;4.50;;
12591;SDS011;6361;52.120;5.108;2023-07-13T07:12:47;12.65;;;3.97;;
12591;SDS011;6361;52.120;5.108;2023-07-13T07:15:13;9.52;;;3.40;;
12591;SDS011;6361;52.120;5.108;2023-07-13T07:17:39;8.13;;;3.15;;
12591;SDS011;6361;52.120;5.108;2023-07-13T07:20:04;8.55;;;3.30;;
12591;SDS011;6361;52.120;5.108;2023-07-13T07:22:30;12.02;;;3.50;;
12591;SDS011;6361;52.120;5.108;2023-07-13T07:24:56;11.40;;;3.75;;
12591;SDS011;6361;52.120;5.108;2023-07-13T07:27:22;11.75;;;4.38;;
12591;SDS011;6361;52.120;5.108;2023-07-13T07:29:48;14.65;;;4.70;;
12591;SDS011;6361;52.120;5.108;2023-07-13T07:32:14;17.50;;;5.53;;
12591;SDS011;6361;52.120;5.108;2023-07-13T07:34:39;13.70;;;5.18;;
12591;SDS011;6361;52.120;5.108;2023-07-13T07:37:05;14.90;;;6.10;;
12591;SDS011;6361;52.120;5.108;2023-07-13T07:39:30;19.70;;;6.82;;
12591;SDS011;6361;52.120;5.108;2023-07-13T07:41:56;13.93;;;7.13;;
12591;SDS011;6361;52.120;5.108;2023-07-13T07:44:22;19.10;;;6.82;;
12591;SDS011;6361;52.120;5.108;2023-07-13T07:46:47;15.00;;;7.05;;
12591;SDS011;6361;52.120;5.108;2023-07-13T07:49:13;17.83;;;7.60;;
12591;SDS011;6361;52.120;5.108;2023-07-13T07:51:39;14.85;;;6.88;;
12591;SDS011;6361;52.120;5.108;2023-07-13T07:54:04;23.08;;;7.45;;
12591;SDS011;6361;52.120;5.108;2023-07-13T07:56:30;19.60;;;8.07;;
12591;SDS011;6361;52.120;5.108;2023-07-13T07:58:56;19.70;;;9.18;;
12591;SDS011;6361;52.120;5.108;2023-07-13T08:01:21;16.65;;;9.10;;
12591;SDS011;6361;52.120;5.108;2023-07-13T08:03:49;27.75;;;9.65;;
12591;SDS011;6361;52.120;5.108;2023-07-13T08:06:14;21.77;;;9.23;;
12591;SDS011;6361;52.120;5.108;2023-07-13T08:08:40;26.75;;;10.10;;
12591;SDS011;6361;52.120;5.108;2023-07-13T08:11:06;18.52;;;8.05;;
12591;SDS011;6361;52.120;5.108;2023-07-13T08:13:33;21.48;;;7.93;;
12591;SDS011;6361;52.120;5.108;2023-07-13T08:15:58;19.65;;;7.43;;
12591;SDS011;6361;52.120;5.108;2023-07-13T08:18:24;19.88;;;7.22;;
12591;SDS011;6361;52.120;5.108;2023-07-13T08:20:50;12.98;;;6.28;;
12591;SDS011;6361;52.120;5.108;2023-07-13T08:23:15;14.30;;;5.32;;
12591;SDS011;6361;52.120;5.108;2023-07-13T08:25:41;8.73;;;3.35;;
12591;SDS011;6361;52.120;5.108;2023-07-13T08:28:07;13.07;;;3.78;;
12591;SDS011;6361;52.120;5.108;2023-07-13T08:30:33;6.10;;;2.72;;
12591;SDS011;6361;52.120;5.108;2023-07-13T08:32:58;7.95;;;3.10;;
12591;SDS011;6361;52.120;5.108;2023-07-13T08:35:24;4.07;;;2.50;;
12591;SDS011;6361;52.120;5.108;2023-07-13T08:37:50;5.00;;;2.20;;
12591;SDS011;6361;52.120;5.108;2023-07-13T08:40:16;6.68;;;2.50;;
12591;SDS011;6361;52.120;5.108;2023-07-13T08:42:44;6.63;;;2.85;;
12591;SDS011;6361;52.120;5.108;2023-07-13T08:45:25;7.38;;;2.92;;
12591;SDS011;6361;52.120;5.108;2023-07-13T08:48:08;7.03;;;3.03;;
12591;SDS011;6361;52.120;5.108;2023-07-13T08:50:47;9.02;;;3.40;;
12591;SDS011;6361;52.120;5.108;2023-07-13T08:53:16;7.13;;;3.33;;
12591;SDS011;6361;52.120;5.108;2023-07-13T08:55:42;6.85;;;3.42;;
12591;SDS011;6361;52.120;5.108;2023-07-13T08:58:11;8.30;;;3.70;;
12591;SDS011;6361;52.120;5.108;2023-07-13T09:03:17;8.32;;;3.85;;
12591;SDS011;6361;52.120;5.108;2023-07-13T09:05:45;14.63;;;4.38;;
12591;SDS011;6361;52.120;5.108;2023-07-13T09:10:52;7.63;;;4.15;;
12591;SDS011;6361;52.120;5.108;2023-07-13T09:13:25;10.30;;;5.03;;
12591;SDS011;6361;52.120;5.108;2023-07-13T09:15:58;11.35;;;5.03;;
12591;SDS011;6361;52.120;5.108;2023-07-13T09:21:22;11.20;;;5.78;;
12591;SDS011;6361;52.120;5.108;2023-07-13T09:23:52;14.05;;;6.30;;
12591;SDS011;6361;52.120;5.108;2023-07-13T09:26:21;13.27;;;6.50;;
12591;SDS011;6361;52.120;5.108;2023-07-13T09:28:49;11.05;;;5.00;;
12591;SDS011;6361;52.120;5.108;2023-07-13T09:31:33;12.32;;;5.30;;
12591;SDS011;6361;52.120;5.108;2023-07-13T09:34:02;6.18;;;3.72;;
12591;SDS011;6361;52.120;5.108;2023-07-13T09:36:32;7.35;;;3.00;;
12591;SDS011;6361;52.120;5.108;2023-07-13T09:44:35;8.75;;;3.15;;
12591;SDS011;6361;52.120;5.108;2023-07-13T09:47:17;6.82;;;3.70;;
12591;SDS011;6361;52.120;5.108;2023-07-13T09:49:43;12.18;;;3.80;;
12591;SDS011;6361;52.120;5.108;2023-07-13T09:52:15;10.43;;;4.43;;
12591;SDS011;6361;52.120;5.108;2023-07-13T09:54:44;12.38;;;4.53;;
12591;SDS011;6361;52.120;5.108;2023-07-13T09:57:16;10.50;;;4.22;;
12591;SDS011;6361;52.120;5.108;2023-07-13T09:59:44;11.75;;;5.07;;
12591;SDS011;6361;52.120;5.108;2023-07-13T10:02:30;13.93;;;5.22;;
12591;SDS011;6361;52.120;5.108;2023-07-13T10:05:05;13.25;;;5.15;;
12591;SDS011;6361;52.120;5.108;2023-07-13T10:07:35;11.23;;;5.30;;
12591;SDS011;6361;52.120;5.108;2023-07-13T10:10:12;11.95;;;5.60;;
12591;SDS011;6361;52.120;5.108;2023-07-13T10:12:43;11.55;;;5.53;;
12591;SDS011;6361;52.120;5.108;2023-07-13T10:15:19;11.77;;;4.72;;
12591;SDS011;6361;52.120;5.108;2023-07-13T10:17:46;12.32;;;5.30;;
12591;SDS011;6361;52.120;5.108;2023-07-13T10:20:12;12.68;;;6.03;;
12591;SDS011;6361;52.120;5.108;2023-07-13T10:22:46;9.77;;;5.38;;
12591;SDS011;6361;52.120;5.108;2023-07-13T10:25:16;14.27;;;5.28;;
12591;SDS011;6361;52.120;5.108;2023-07-13T10:27:44;11.07;;;5.30;;
12591;SDS011;6361;52.120;5.108;2023-07-13T10:30:15;11.68;;;5.00;;
12591;SDS011;6361;52.120;5.108;2023-07-13T10:32:42;17.33;;;4.90;;
12591;SDS011;6361;52.120;5.108;2023-07-13T10:35:10;12.38;;;4.90;;
12591;SDS011;6361;52.120;5.108;2023-07-13T10:37:58;8.73;;;4.70;;
12591;SDS011;6361;52.120;5.108;2023-07-13T10:40:37;11.15;;;4.78;;
12591;SDS011;6361;52.120;5.108;2023-07-13T10:43:29;10.00;;;4.63;;
12591;SDS011;6361;52.120;5.108;2023-07-13T10:46:02;8.75;;;4.38;;
12591;SDS011;6361;52.120;5.108;2023-07-13T10:48:29;8.05;;;4.22;;
12591;SDS011;6361;52.120;5.108;2023-07-13T10:50:57;6.15;;;3.72;;
12591;SDS011;6361;52.120;5.108;2023-07-13T10:53:33;9.93;;;4.28;;
12591;SDS011;6361;52.120;5.108;2023-07-13T10:56:04;10.20;;;4.00;;
12591;SDS011;6361;52.120;5.108;2023-07-13T10:58:39;8.25;;;3.83;;
12591;SDS011;6361;52.120;5.108;2023-07-13T11:01:15;10.40;;;4.03;;
12591;SDS011;6361;52.120;5.108;2023-07-13T11:08:55;10.88;;;4.03;;
12591;SDS011;6361;52.120;5.108;2023-07-13T11:18:44;6.82;;;3.55;;
12591;SDS011;6361;52.120;5.108;2023-07-13T11:21:18;7.65;;;3.50;;
12591;SDS011;6361;52.120;5.108;2023-07-13T11:23:54;9.38;;;3.85;;
12591;SDS011;6361;52.120;5.108;2023-07-13T11:26:42;7.10;;;3.45;;
12591;SDS011;6361;52.120;5.108;2023-07-13T11:31:39;8.75;;;3.85;;
12591;SDS011;6361;52.120;5.108;2023-07-13T11:34:06;9.40;;;4.43;;
12591;SDS011;6361;52.120;5.108;2023-07-13T11:36:38;11.50;;;4.10;;
12591;SDS011;6361;52.120;5.108;2023-07-13T11:41:45;9.20;;;3.73;;
12591;SDS011;6361;52.120;5.108;2023-07-13T11:44:18;9.30;;;3.80;;
12591;SDS011;6361;52.120;5.108;2023-07-13T11:46:46;9.52;;;3.67;;
12591;SDS011;6361;52.120;5.108;2023-07-13T11:49:16;8.27;;;3.78;;
12591;SDS011;6361;52.120;5.108;2023-07-13T11:51:43;9.93;;;3.80;;
12591;SDS011;6361;52.120;5.108;2023-07-13T11:54:26;12.18;;;4.03;;
12591;SDS011;6361;52.120;5.108;2023-07-13T11:56:55;5.40;;;3.40;;
12591;SDS011;6361;52.120;5.108;2023-07-13T11:59:23;9.00;;;3.50;;
12591;SDS011;6361;52.120;5.108;2023-07-13T12:01:50;10.13;;;3.55;;
12591;SDS011;6361;52.120;5.108;2023-07-13T12:04:35;7.38;;;3.83;;
12591;SDS011;6361;52.120;5.108;2023-07-13T12:07:05;9.88;;;3.60;;
12591;SDS011;6361;52.120;5.108;2023-07-13T12:09:34;7.93;;;3.72;;
12591;SDS011;6361;52.120;5.108;2023-07-13T12:12:02;7.68;;;3.38;;
12591;SDS011;6361;52.120;5.108;2023-07-13T12:14:28;7.75;;;3.50;;
12591;SDS011;6361;52.120;5.108;2023-07-13T12:16:54;9.93;;;3.30;;
12591;SDS011;6361;52.120;5.108;2023-07-13T12:19:25;10.15;;;3.60;;
12591;SDS011;6361;52.120;5.108;2023-07-13T12:21:53;9.68;;;3.45;;
12591;SDS011;6361;52.120;5.108;2023-07-13T12:24:20;8.90;;;3.40;;
12591;SDS011;6361;52.120;5.108;2023-07-13T12:26:52;7.93;;;3.38;;
12591;SDS011;6361;52.120;5.108;2023-07-13T12:29:19;7.43;;;3.40;;
12591;SDS011;6361;52.120;5.108;2023-07-13T12:31:45;8.05;;;2.83;;
12591;SDS011;6361;52.120;5.108;2023-07-13T12:41:45;6.38;;;3.20;;
12591;SDS011;6361;52.120;5.108;2023-07-13T12:44:12;8.63;;;3.10;;
12591;SDS011;6361;52.120;5.108;2023-07-13T12:46:39;7.80;;;3.10;;
12591;SDS011;6361;52.120;5.108;2023-07-13T12:49:05;7.45;;;3.00;;
12591;SDS011;6361;52.120;5.108;2023-07-13T12:51:32;8.38;;;2.80;;
12591;SDS011;6361;52.120;5.108;2023-07-13T12:54:19;7.93;;;3.17;;
12591;SDS011;6361;52.120;5.108;2023-07-13T12:56:44;7.25;;;3.40;;
12591;SDS011;6361;52.120;5.108;2023-07-13T12:59:15;8.25;;;3.22;;
12591;SDS011;6361;52.120;5.108;2023-07-13T13:01:43;6.72;;;3.10;;
12591;SDS011;6361;52.120;5.108;2023-07-13T13:04:08;7.22;;;3.00;;
12591;SDS011;6361;52.120;5.108;2023-07-13T13:06:38;7.22;;;2.70;;
12591;SDS011;6361;52.120;5.108;2023-07-13T13:09:05;6.15;;;2.85;;
12591;SDS011;6361;52.120;5.108;2023-07-13T13:11:36;5.22;;;2.65;;
12591;SDS011;6361;52.120;5.108;2023-07-13T13:14:02;7.35;;;2.85;;
12591;SDS011;6361;52.120;5.108;2023-07-13T13:16:30;9.00;;;3.30;;
12591;SDS011;6361;52.120;5.108;2023-07-13T13:19:02;7.03;;;3.28;;
12591;SDS011;6361;52.120;5.108;2023-07-13T13:21:41;9.63;;;3.20;;
12591;SDS011;6361;52.120;5.108;2023-07-13T13:24:15;5.90;;;3.10;;
12591;SDS011;6361;52.120;5.108;2023-07-13T13:26:42;7.93;;;3.17;;
12591;SDS011;6361;52.120;5.108;2023-07-13T13:29:15;5.82;;;2.80;;
12591;SDS011;6361;52.120;5.108;2023-07-13T13:31:42;9.55;;;2.65;;
12591;SDS011;6361;52.120;5.108;2023-07-13T13:34:13;7.68;;;3.30;;
12591;SDS011;6361;52.120;5.108;2023-07-13T13:36:40;6.32;;;3.42;;
12591;SDS011;6361;52.120;5.108;2023-07-13T13:39:39;8.05;;;3.40;;
12591;SDS011;6361;52.120;5.108;2023-07-13T13:41:59;9.20;;;3.10;;
12591;SDS011;6361;52.120;5.108;2023-07-13T13:44:24;7.65;;;2.95;;
12591;SDS011;6361;52.120;5.108;2023-07-13T13:46:53;4.88;;;2.70;;
12591;SDS011;6361;52.120;5.108;2023-07-13T13:49:24;7.95;;;3.15;;
12591;SDS011;6361;52.120;5.108;2023-07-13T13:51:51;4.43;;;2.95;;
12591;SDS011;6361;52.120;5.108;2023-07-13T13:54:17;4.65;;;2.45;;
12591;SDS011;6361;52.120;5.108;2023-07-13T13:56:44;5.38;;;2.83;;
12591;SDS011;6361;52.120;5.108;2023-07-13T13:59:11;4.85;;;2.85;;
12591;SDS011;6361;52.120;5.108;2023-07-13T14:01:37;7.32;;;2.97;;
12591;SDS011;6361;52.120;5.108;2023-07-13T14:04:03;8.55;;;2.70;;
12591;SDS011;6361;52.120;5.108;2023-07-13T14:06:30;5.68;;;2.88;;
12591;SDS011;6361;52.120;5.108;2023-07-13T14:08:56;6.75;;;3.05;;
12591;SDS011;6361;52.120;5.108;2023-07-13T14:11:21;5.32;;;2.70;;
12591;SDS011;6361;52.120;5.108;2023-07-13T14:13:48;5.47;;;2.60;;
12591;SDS011;6361;52.120;5.108;2023-07-13T14:16:16;7.80;;;2.80;;
12591;SDS011;6361;52.120;5.108;2023-07-13T14:18:46;10.30;;;2.50;;
12591;SDS011;6361;52.120;5.108;2023-07-13T14:21:13;5.43;;;2.60;;
12591;SDS011;6361;52.120;5.108;2023-07-13T14:23:39;8.30;;;2.78;;
12591;SDS011;6361;52.120;5.108;2023-07-13T14:26:09;7.90;;;2.50;;
12591;SDS011;6361;52.120;5.108;2023-07-13T14:28:37;9.05;;;2.60;;
12591;SDS011;6361;52.120;5.108;2023-07-13T14:31:07;9.73;;;2.60;;
12591;SDS011;6361;52.120;5.108;2023-07-13T14:33:32;6.35;;;2.50;;
12591;SDS011;6361;52.120;5.108;2023-07-13T14:35:58;6.47;;;2.55;;
12591;SDS011;6361;52.120;5.108;2023-07-13T14:38:23;6.60;;;2.75;;
12591;SDS011;6361;52.120;5.108;2023-07-13T14:40:49;6.15;;;2.50;;
12591;SDS011;6361;52.120;5.108;2023-07-13T14:43:15;7.28;;;2.33;;
12591;SDS011;6361;52.120;5.108;2023-07-13T14:45:43;6.05;;;2.70;;
12591;SDS011;6361;52.120;5.108;2023-07-13T14:50:39;6.80;;;2.70;;
12591;SDS011;6361;52.120;5.108;2023-07-13T14:53:08;4.07;;;2.60;;
12591;SDS011;6361;52.120;5.108;2023-07-13T14:55:36;7.13;;;2.42;;
12591;SDS011;6361;52.120;5.108;2023-07-13T14:58:02;5.50;;;2.53;;
12591;SDS011;6361;52.120;5.108;2023-07-13T15:00:27;5.95;;;2.58;;
12591;SDS011;6361;52.120;5.108;2023-07-13T15:02:54;6.93;;;2.25;;
12591;SDS011;6361;52.120;5.108;2023-07-13T15:05:22;4.10;;;2.30;;
12591;SDS011;6361;52.120;5.108;2023-07-13T15:07:50;5.10;;;2.20;;
12591;SDS011;6361;52.120;5.108;2023-07-13T15:10:26;5.63;;;2.20;;
12591;SDS011;6361;52.120;5.108;2023-07-13T15:13:01;6.13;;;2.35;;
12591;SDS011;6361;52.120;5.108;2023-07-13T15:15:38;6.13;;;2.40;;
12591;SDS011;6361;52.120;5.108;2023-07-13T15:18:05;4.43;;;2.20;;
12591;SDS011;6361;52.120;5.108;2023-07-13T15:20:33;5.05;;;1.80;;
12591;SDS011;6361;52.120;5.108;2023-07-13T15:23:00;4.50;;;2.05;;
12591;SDS011;6361;52.120;5.108;2023-07-13T15:25:27;5.35;;;2.17;;
12591;SDS011;6361;52.120;5.108;2023-07-13T15:27:55;4.63;;;2.08;;
12591;SDS011;6361;52.120;5.108;2023-07-13T15:30:22;5.38;;;2.00;;
12591;SDS011;6361;52.120;5.108;2023-07-13T15:32:48;4.00;;;1.88;;
12591;SDS011;6361;52.120;5.108;2023-07-13T15:35:18;5.80;;;2.10;;
12591;SDS011;6361;52.120;5.108;2023-07-13T15:37:45;5.15;;;2.10;;
12591;SDS011;6361;52.120;5.108;2023-07-13T15:40:13;6.80;;;2.15;;
12591;SDS011;6361;52.120;5.108;2023-07-13T15:42:39;3.70;;;1.80;;